Time;durP1;ratioP1;P1;durP2;ratioP2;P2;SDS_P1;SDS_P2;PMS_P1;PMS_P2;Temp;Humidity;BMP_temperature;BMP_pressure;BME280_temperature;BME280_humidity;BME280_pressure;Samples;Min_cycle;Max_cycle;Signal;HPM_P1;HPM_P2
2022/08/21 00:00:51;;;;;;;7.70;4.53;;;14.90;99.90;;;;;;4993175;28;20111;-68
2022/08/21 00:03:17;;;;;;;6.15;4.78;;;14.90;99.90;;;;;;5010693;28;20053;-68
2022/08/21 00:05:52;;;;;;;9.07;5.13;;;14.80;99.90;;;;;;4988697;28;20100;-68
2022/08/21 00:08:18;;;;;;;6.85;5.05;;;14.80;99.90;;;;;;4987090;28;20042;-68
2022/08/21 00:10:44;;;;;;;7.78;4.30;;;14.80;99.90;;;;;;4992343;28;20068;-68
2022/08/21 00:13:11;;;;;;;5.93;4.57;;;14.80;99.90;;;;;;5009628;28;20050;-67
2022/08/21 00:15:38;;;;;;;8.95;5.03;;;14.80;99.90;;;;;;5010335;28;20050;-68
2022/08/21 00:18:06;;;;;;;6.40;4.88;;;14.70;99.90;;;;;;5011339;28;20516;-68
2022/08/21 00:20:32;;;;;;;7.28;4.82;;;14.70;99.90;;;;;;5011496;28;20494;-67
2022/08/21 00:22:58;;;;;;;7.65;5.65;;;14.70;99.90;;;;;;5010786;28;20050;-68
2022/08/21 00:25:24;;;;;;;7.50;5.72;;;14.70;99.90;;;;;;5030662;28;20095;-68
2022/08/21 00:27:50;;;;;;;7.55;5.97;;;14.70;99.90;;;;;;5030671;28;20828;-67
2022/08/21 00:30:18;;;;;;;7.55;5.97;;;14.60;99.90;;;;;;5031034;28;20045;-67
2022/08/21 00:32:44;;;;;;;7.97;5.90;;;14.60;99.90;;;;;;5031399;28;20088;-68
2022/08/21 00:35:13;;;;;;;8.70;6.18;;;14.60;99.90;;;;;;5029771;28;20081;-68
2022/08/21 00:37:40;;;;;;;7.43;5.40;;;14.60;99.90;;;;;;5030353;28;20065;-68
2022/08/21 00:40:11;;;;;;;8.75;5.60;;;14.50;99.90;;;;;;5028278;28;20080;-68
2022/08/21 00:42:36;;;;;;;7.38;5.88;;;14.50;99.90;;;;;;5013558;28;20045;-67
2022/08/21 00:45:04;;;;;;;8.65;6.40;;;14.50;99.90;;;;;;5030586;28;20045;-67
2022/08/21 00:47:29;;;;;;;9.85;5.85;;;14.50;99.90;;;;;;5029924;28;20044;-68
2022/08/21 00:49:56;;;;;;;9.15;6.50;;;14.50;99.90;;;;;;5029992;28;20050;-68
2022/08/21 00:52:27;;;;;;;7.82;5.60;;;14.50;99.90;;;;;;5031448;28;20512;-68
2022/08/21 00:54:55;;;;;;;6.95;6.03;;;14.50;99.90;;;;;;5031433;28;20053;-68
2022/08/21 00:57:27;;;;;;;8.02;6.20;;;14.50;99.90;;;;;;5032156;28;20099;-67
2022/08/21 00:59:55;;;;;;;9.50;6.53;;;14.50;99.90;;;;;;5026935;28;20057;-67
2022/08/21 01:02:21;;;;;;;7.88;6.10;;;14.50;99.90;;;;;;5020203;28;20070;-68
2022/08/21 01:04:48;;;;;;;9.82;7.03;;;14.40;99.90;;;;;;5028972;28;20068;-68
2022/08/21 01:07:14;;;;;;;8.50;6.53;;;14.40;99.90;;;;;;5029466;28;20050;-68
2022/08/21 01:09:41;;;;;;;8.27;7.00;;;14.40;99.90;;;;;;5013681;28;20128;-68
2022/08/21 01:12:07;;;;;;;9.52;6.32;;;14.30;99.90;;;;;;5011363;28;20172;-68
2022/08/21 01:14:33;;;;;;;7.65;6.45;;;14.30;99.90;;;;;;5031758;28;20132;-67
2022/08/21 01:17:00;;;;;;;8.82;6.40;;;14.30;99.90;;;;;;5030383;28;20160;-68
2022/08/21 01:19:27;;;;;;;9.63;6.68;;;14.30;99.90;;;;;;5031362;28;20088;-68
2022/08/21 01:21:54;;;;;;;9.27;6.93;;;14.30;99.90;;;;;;5029111;28;20110;-68
2022/08/21 01:24:21;;;;;;;7.20;6.60;;;14.30;99.90;;;;;;5020795;28;20049;-67
2022/08/21 01:26:47;;;;;;;8.40;6.60;;;14.20;99.90;;;;;;5014908;28;20057;-68
2022/08/21 01:29:42;;;;;;;9.65;7.15;;;14.20;99.90;;;;;;5015570;28;20045;-68
2022/08/21 01:32:13;;;;;;;9.95;7.32;;;14.20;99.90;;;;;;4996157;28;20180;-67
2022/08/21 01:34:42;;;;;;;9.73;7.00;;;14.20;99.90;;;;;;4993345;28;20054;-68
2022/08/21 01:37:08;;;;;;;8.60;6.60;;;14.20;99.90;;;;;;5015258;28;20534;-68
2022/08/21 01:39:35;;;;;;;9.73;6.75;;;14.10;99.90;;;;;;4976246;28;20125;-67
2022/08/21 01:42:01;;;;;;;8.50;6.60;;;14.10;99.90;;;;;;5013641;28;20063;-68
2022/08/21 01:44:27;;;;;;;7.82;7.03;;;14.10;99.90;;;;;;5013265;28;20077;-67
2022/08/21 01:46:53;;;;;;;10.38;6.90;;;14.10;99.90;;;;;;5015862;28;20478;-68
2022/08/21 01:49:19;;;;;;;9.73;7.60;;;14.00;99.90;;;;;;5012888;28;20085;-68
2022/08/21 01:51:45;;;;;;;11.20;7.57;;;14.00;99.90;;;;;;5014173;28;20057;-67
2022/08/21 01:54:11;;;;;;;8.27;7.47;;;14.00;99.90;;;;;;5011378;28;20042;-68
2022/08/21 01:56:39;;;;;;;9.68;7.95;;;13.90;99.90;;;;;;5014725;28;20130;-67
2022/08/21 01:59:06;;;;;;;10.43;8.60;;;13.90;99.90;;;;;;4996496;28;20073;-67
2022/08/21 02:01:32;;;;;;;13.85;7.95;;;13.90;99.90;;;;;;5014729;28;20057;-67
2022/08/21 02:03:59;;;;;;;9.38;8.40;;;13.90;99.90;;;;;;5011971;28;20081;-67
2022/08/21 02:06:26;;;;;;;10.93;8.50;;;13.90;99.90;;;;;;5013167;28;20081;-67
2022/08/21 02:08:52;;;;;;;10.05;7.75;;;13.80;99.90;;;;;;5012941;28;20104;-67
2022/08/21 02:11:19;;;;;;;8.88;7.75;;;13.80;99.90;;;;;;5013725;28;20061;-67
2022/08/21 02:13:45;;;;;;;8.80;7.38;;;13.80;99.90;;;;;;4995803;28;20061;-68
2022/08/21 02:16:11;;;;;;;11.48;7.45;;;13.70;99.90;;;;;;5013960;28;20467;-68
2022/08/21 02:18:37;;;;;;;9.73;8.77;;;13.70;99.90;;;;;;5013057;28;20046;-68
2022/08/21 02:21:04;;;;;;;11.25;8.13;;;13.70;99.90;;;;;;5015043;28;20061;-68
2022/08/21 02:23:30;;;;;;;8.68;7.68;;;13.70;99.90;;;;;;5012820;28;20437;-68
2022/08/21 02:26:00;;;;;;;8.15;7.30;;;13.70;99.90;;;;;;5013828;28;20354;-68
2022/08/21 02:28:26;;;;;;;9.32;7.97;;;13.70;99.90;;;;;;5012719;28;20054;-68
2022/08/21 02:38:27;;;;;;;10.25;7.72;;;13.60;99.90;;;;;;4989408;28;20053;-68
2022/08/21 02:43:47;;;;;;;9.45;7.82;;;13.60;99.90;;;;;;4956112;28;20356;-68
2022/08/21 02:46:18;;;;;;;13.60;7.75;;;13.50;99.90;;;;;;4990708;28;20084;-67
2022/08/21 02:48:47;;;;;;;9.98;8.07;;;13.50;99.90;;;;;;4984587;28;20264;-68
2022/08/21 02:51:40;;;;;;;11.82;8.93;;;13.60;99.90;;;;;;4994006;28;20050;-68
2022/08/21 02:54:05;;;;;;;15.02;9.60;;;13.50;99.90;;;;;;4981026;28;20065;-67
2022/08/21 02:56:51;;;;;;;9.85;8.85;;;13.50;99.90;;;;;;5014041;28;20088;-68
2022/08/21 02:59:16;;;;;;;12.85;8.73;;;13.50;99.90;;;;;;5007153;28;20132;-68
2022/08/21 03:01:42;;;;;;;13.20;9.32;;;13.50;99.90;;;;;;5012672;28;20137;-68
2022/08/21 03:04:08;;;;;;;10.68;9.07;;;13.50;99.90;;;;;;4982536;28;20047;-68
2022/08/21 03:06:33;;;;;;;10.38;9.25;;;13.50;99.90;;;;;;5005730;28;20104;-68
2022/08/21 03:08:59;;;;;;;11.45;8.88;;;13.50;99.90;;;;;;4995521;28;20424;-68
2022/08/21 03:11:26;;;;;;;10.65;9.60;;;13.50;99.90;;;;;;5010619;28;20062;-67
2022/08/21 03:13:51;;;;;;;10.00;8.75;;;13.50;99.90;;;;;;5011207;28;20045;-67
2022/08/21 03:16:19;;;;;;;12.13;9.40;;;13.40;99.90;;;;;;5009627;28;20068;-68
2022/08/21 03:18:44;;;;;;;10.80;9.20;;;13.50;99.90;;;;;;5010452;28;20050;-68
2022/08/21 03:21:10;;;;;;;10.80;9.32;;;13.50;99.90;;;;;;5013276;28;20513;-68
2022/08/21 03:23:37;;;;;;;10.38;8.95;;;13.40;99.90;;;;;;5010894;28;20054;-68
2022/08/21 03:26:03;;;;;;;11.23;9.43;;;13.50;99.90;;;;;;5011505;28;20119;-68
2022/08/21 03:28:29;;;;;;;10.18;9.00;;;13.40;99.90;;;;;;5011950;28;20092;-68
2022/08/21 03:30:55;;;;;;;16.05;10.77;;;13.40;99.90;;;;;;5010815;28;20054;-68
2022/08/21 03:33:21;;;;;;;10.68;9.48;;;13.40;99.90;;;;;;5012792;28;20044;-68
2022/08/21 03:36:07;;;;;;;11.55;9.60;;;13.40;99.90;;;;;;5012762;28;20054;-68
2022/08/21 03:38:34;;;;;;;10.55;9.35;;;13.40;99.90;;;;;;5010992;28;20104;-68
2022/08/21 03:41:01;;;;;;;11.57;9.75;;;13.40;99.90;;;;;;5013781;28;20069;-68
2022/08/21 03:43:27;;;;;;;11.75;8.93;;;13.40;99.90;;;;;;5009182;28;20482;-68
2022/08/21 03:45:52;;;;;;;12.32;9.60;;;13.40;99.90;;;;;;4994848;28;20108;-68
2022/08/21 03:48:19;;;;;;;12.07;10.38;;;13.40;99.90;;;;;;5008433;28;20054;-68
2022/08/21 03:50:46;;;;;;;12.95;9.70;;;13.30;99.90;;;;;;5013476;28;20490;-68
2022/08/21 03:53:13;;;;;;;11.90;9.57;;;13.30;99.90;;;;;;5009929;28;20501;-67
2022/08/21 03:55:39;;;;;;;12.15;9.57;;;13.30;99.90;;;;;;5012706;28;20046;-68
2022/08/21 03:58:06;;;;;;;10.90;9.80;;;13.30;99.90;;;;;;5010401;28;20053;-68
2022/08/21 04:00:32;;;;;;;13.27;9.15;;;13.30;99.90;;;;;;5011264;28;20072;-68
2022/08/21 04:02:57;;;;;;;13.43;9.30;;;13.30;99.90;;;;;;5005263;28;20486;-68
2022/08/21 04:05:29;;;;;;;12.10;9.88;;;13.30;99.90;;;;;;5009687;28;20054;-68
2022/08/21 04:08:02;;;;;;;10.18;8.98;;;13.30;99.90;;;;;;4993374;28;20054;-68
2022/08/21 04:10:31;;;;;;;11.30;10.13;;;13.30;99.90;;;;;;5007852;28;20057;-68
2022/08/21 04:12:57;;;;;;;8.88;7.97;;;13.30;99.90;;;;;;5004097;28;20069;-68
2022/08/21 04:15:24;;;;;;;10.60;9.13;;;13.30;99.90;;;;;;5011388;28;20045;-68
2022/08/21 04:17:50;;;;;;;11.93;8.77;;;13.40;99.90;;;;;;5011801;28;20049;-68
2022/08/21 04:20:18;;;;;;;12.07;9.98;;;13.30;99.90;;;;;;4993741;28;20057;-68
2022/08/21 04:22:44;;;;;;;10.98;8.70;;;13.30;99.90;;;;;;5010955;28;20064;-68
2022/08/21 04:25:11;;;;;;;12.25;10.07;;;13.30;99.90;;;;;;5010833;28;20054;-68
2022/08/21 04:27:37;;;;;;;11.77;9.50;;;13.30;99.90;;;;;;4995407;28;20149;-68
2022/08/21 04:30:04;;;;;;;11.48;9.85;;;13.30;99.90;;;;;;5010453;28;20168;-68
2022/08/21 04:32:30;;;;;;;12.15;9.45;;;13.30;99.90;;;;;;5012020;28;20049;-68
2022/08/21 04:35:08;;;;;;;12.85;10.35;;;13.30;99.90;;;;;;5007710;28;20065;-68
2022/08/21 04:37:33;;;;;;;11.55;9.20;;;13.30;99.90;;;;;;4993954;28;20064;-68
2022/08/21 04:39:59;;;;;;;11.40;9.50;;;13.30;99.90;;;;;;4994270;28;20071;-67
2022/08/21 04:42:27;;;;;;;11.73;9.63;;;13.30;99.90;;;;;;5010170;28;20116;-68
2022/08/21 04:44:53;;;;;;;12.85;9.93;;;13.40;99.90;;;;;;5012109;28;20054;-68
2022/08/21 04:47:19;;;;;;;11.35;10.07;;;13.30;99.90;;;;;;5008765;28;20137;-68
2022/08/21 04:49:45;;;;;;;12.10;10.25;;;13.40;99.90;;;;;;4991253;28;20120;-68
2022/08/21 04:52:14;;;;;;;11.80;9.98;;;13.40;99.90;;;;;;4992440;28;20054;-68
2022/08/21 04:54:40;;;;;;;10.85;9.65;;;13.40;99.90;;;;;;5012472;28;20083;-68
2022/08/21 04:57:09;;;;;;;14.15;10.77;;;13.40;99.90;;;;;;5008547;28;20054;-68
2022/08/21 04:59:47;;;;;;;10.40;9.30;;;13.40;99.90;;;;;;5010434;28;20057;-68
2022/08/21 05:02:13;;;;;;;12.25;9.02;;;13.50;99.90;;;;;;5013116;28;20050;-68
2022/08/21 05:04:44;;;;;;;10.75;9.10;;;13.50;99.90;;;;;;5013751;28;20069;-68
2022/08/21 05:07:15;;;;;;;17.15;10.63;;;13.50;99.90;;;;;;5010216;28;20335;-68
2022/08/21 05:09:41;;;;;;;10.07;9.18;;;13.50;99.90;;;;;;5011283;28;20053;-67
2022/08/21 05:12:07;;;;;;;10.05;8.82;;;13.60;99.90;;;;;;4992103;28;20081;-68
2022/08/21 05:14:32;;;;;;;16.00;10.38;;;13.60;99.90;;;;;;4996960;28;20075;-68
2022/08/21 05:16:58;;;;;;;11.48;9.32;;;13.60;99.90;;;;;;5013143;28;20076;-68
2022/08/21 05:19:25;;;;;;;13.57;9.85;;;13.60;99.90;;;;;;4998317;28;20054;-68
2022/08/21 05:21:51;;;;;;;10.85;9.10;;;13.70;99.90;;;;;;4996711;28;20053;-68
2022/08/21 05:24:17;;;;;;;11.23;10.00;;;13.70;99.90;;;;;;5012982;28;20056;-68
2022/08/21 05:26:44;;;;;;;10.93;9.80;;;13.70;99.90;;;;;;5013782;28;20053;-67
2022/08/21 05:29:10;;;;;;;11.23;9.27;;;13.80;99.90;;;;;;5009909;28;20053;-68
2022/08/21 05:31:37;;;;;;;12.32;9.60;;;13.80;99.90;;;;;;5010873;28;20046;-68
2022/08/21 05:34:03;;;;;;;11.02;9.30;;;13.90;99.90;;;;;;5012585;28;20046;-68
2022/08/21 05:36:29;;;;;;;15.25;10.05;;;14.00;99.90;;;;;;5014844;28;20054;-68
2022/08/21 05:38:55;;;;;;;12.00;9.35;;;14.00;99.90;;;;;;5012949;28;20209;-68
2022/08/21 05:41:21;;;;;;;9.85;8.85;;;14.10;99.90;;;;;;5004765;28;20124;-68
2022/08/21 05:43:47;;;;;;;11.30;9.00;;;14.20;99.90;;;;;;5009834;28;20478;-67
2022/08/21 05:46:12;;;;;;;10.90;9.00;;;14.20;99.90;;;;;;4989377;28;20050;-68
2022/08/21 05:48:39;;;;;;;10.90;9.02;;;14.30;99.90;;;;;;5012153;28;20375;-68
2022/08/21 05:51:12;;;;;;;9.27;8.32;;;14.40;99.90;;;;;;4994373;28;20065;-67
2022/08/21 05:53:38;;;;;;;11.20;9.60;;;14.60;99.90;;;;;;4992832;28;20053;-67
2022/08/21 05:56:06;;;;;;;10.23;8.50;;;;;;;;;;5010269;28;20057;-67
2022/08/21 05:58:32;;;;;;;9.82;8.75;;;17.60;99.90;;;;;;5010135;28;20046;-67
2022/08/21 06:00:59;;;;;;;10.98;8.65;;;17.30;99.90;;;;;;5013278;28;20041;-65
2022/08/21 06:03:26;;;;;;;11.05;8.32;;;18.00;99.90;;;;;;5013554;28;20568;-68
2022/08/21 06:05:53;;;;;;;11.98;8.23;;;18.60;99.90;;;;;;4997579;28;20077;-68
2022/08/21 06:08:20;;;;;;;8.25;6.35;;;18.80;99.90;;;;;;5014118;28;20052;-68
2022/08/21 06:10:47;;;;;;;8.88;7.32;;;18.40;99.90;;;;;;4996785;28;20074;-66
2022/08/21 06:13:14;;;;;;;11.38;7.72;;;18.00;99.90;;;;;;5013265;28;20042;-67
2022/08/21 06:15:40;;;;;;;9.70;6.85;;;17.50;99.90;;;;;;5014325;28;20079;-67
2022/08/21 06:18:06;;;;;;;10.65;7.45;;;17.30;99.90;;;;;;5014614;28;20109;-67
2022/08/21 06:20:33;;;;;;;8.68;6.80;;;17.10;99.90;;;;;;5014756;28;20046;-67
2022/08/21 06:22:58;;;;;;;9.60;7.55;;;17.10;99.90;;;;;;4995928;28;20169;-67
2022/08/21 06:25:24;;;;;;;10.63;6.90;;;17.00;99.90;;;;;;5015128;28;20128;-67
2022/08/21 06:27:51;;;;;;;8.13;6.90;;;16.90;99.90;;;;;;5014760;28;20398;-67
2022/08/21 06:30:17;;;;;;;13.30;6.95;;;16.90;99.90;;;;;;5014532;28;20354;-67
2022/08/21 06:32:43;;;;;;;8.65;6.40;;;16.90;99.90;;;;;;5012855;28;20125;-68
2022/08/21 06:35:10;;;;;;;11.38;7.35;;;17.00;99.90;;;;;;5013430;28;20393;-68
2022/08/21 06:37:35;;;;;;;13.18;7.47;;;17.00;99.90;;;;;;5013124;28;20041;-67
2022/08/21 06:40:03;;;;;;;12.02;6.30;;;17.10;99.90;;;;;;5012613;28;20042;-68
2022/08/21 06:42:29;;;;;;;9.63;6.13;;;17.20;99.90;;;;;;5013945;28;20510;-67
2022/08/21 06:44:56;;;;;;;7.07;4.90;;;17.30;99.90;;;;;;5002347;28;20057;-67
2022/08/21 06:47:21;;;;;;;10.52;5.93;;;17.30;99.90;;;;;;4993301;28;20133;-67
2022/08/21 06:49:47;;;;;;;9.88;5.70;;;17.40;99.90;;;;;;4994582;28;20074;-67
2022/08/21 06:52:13;;;;;;;8.70;5.70;;;17.50;99.90;;;;;;5009689;28;20088;-65
2022/08/21 06:54:40;;;;;;;11.10;5.20;;;17.60;99.90;;;;;;5013964;28;20116;-67
2022/08/21 06:57:06;;;;;;;10.43;5.40;;;17.60;99.90;;;;;;4996334;28;20072;-67
2022/08/21 06:59:32;;;;;;;8.75;5.07;;;17.70;99.90;;;;;;5014222;28;20046;-67
2022/08/21 07:01:59;;;;;;;7.75;5.03;;;17.80;99.90;;;;;;5014187;28;20093;-67
2022/08/21 07:04:24;;;;;;;10.93;5.18;;;17.90;99.90;;;;;;4996207;28;20069;-67
2022/08/21 07:06:50;;;;;;;9.15;5.28;;;18.10;99.90;;;;;;5012604;28;20049;-67
2022/08/21 07:09:16;;;;;;;9.40;4.90;;;18.20;99.90;;;;;;5013714;28;20069;-67
2022/08/21 07:11:42;;;;;;;11.98;5.00;;;18.30;99.90;;;;;;4996200;28;20117;-67
2022/08/21 07:14:07;;;;;;;10.73;4.80;;;18.40;99.90;;;;;;4996392;28;20123;-67
2022/08/21 07:16:33;;;;;;;8.00;4.32;;;18.60;99.90;;;;;;4995814;28;20536;-68
2022/08/21 07:18:59;;;;;;;6.93;4.40;;;18.70;99.90;;;;;;4995705;28;20073;-67
2022/08/21 07:21:24;;;;;;;7.45;3.97;;;18.80;99.90;;;;;;4995036;28;20041;-67
2022/08/21 07:23:51;;;;;;;8.30;3.88;;;19.00;99.90;;;;;;4995321;28;20112;-67
2022/08/21 07:26:20;;;;;;;9.45;3.45;;;19.10;99.90;;;;;;5013374;28;20125;-68
2022/08/21 07:28:47;;;;;;;6.03;3.00;;;19.20;99.90;;;;;;5013429;28;20157;-67
2022/08/21 07:31:15;;;;;;;8.23;3.45;;;19.40;99.90;;;;;;5013087;28;20050;-68
2022/08/21 07:33:41;;;;;;;7.35;3.47;;;19.50;99.90;;;;;;4994415;28;20155;-68
2022/08/21 07:36:07;;;;;;;7.97;3.30;;;19.60;99.90;;;;;;4995046;28;20041;-68
2022/08/21 07:38:33;;;;;;;9.23;3.30;;;19.70;99.90;;;;;;5011317;28;20050;-68
2022/08/21 07:41:07;;;;;;;8.40;3.30;;;19.80;99.90;;;;;;5013174;28;20149;-69
2022/08/21 07:43:38;;;;;;;11.93;3.47;;;19.90;99.90;;;;;;5011652;28;20053;-68
2022/08/21 07:46:04;;;;;;;8.20;3.95;;;20.00;99.90;;;;;;5013104;28;20062;-67
2022/08/21 07:48:29;;;;;;;9.13;3.45;;;20.20;99.90;;;;;;5013589;28;20096;-68
2022/08/21 07:59:34;;;;;;;10.02;3.33;;;20.50;99.90;;;;;;5011823;28;20513;-67
2022/08/21 08:02:03;;;;;;;6.72;2.88;;;20.60;99.90;;;;;;4977048;28;20050;-68
2022/08/21 08:04:29;;;;;;;5.47;2.53;;;20.60;99.90;;;;;;4994152;28;20053;-68
2022/08/21 08:06:54;;;;;;;8.50;2.55;;;20.60;99.90;;;;;;4992773;28;20046;-68
2022/08/21 08:09:20;;;;;;;6.15;2.80;;;20.60;99.90;;;;;;5008706;28;20057;-67
2022/08/21 08:11:46;;;;;;;6.68;3.00;;;20.80;99.90;;;;;;4993485;28;20053;-67
2022/08/21 08:14:11;;;;;;;5.85;2.55;;;20.90;99.90;;;;;;4996446;28;20045;-68
2022/08/21 08:16:37;;;;;;;5.85;2.80;;;21.10;99.90;;;;;;4995137;28;20050;-68
2022/08/21 08:19:03;;;;;;;7.65;2.75;;;21.20;99.90;;;;;;5012941;28;20441;-68
2022/08/21 08:21:29;;;;;;;7.32;2.50;;;21.20;99.90;;;;;;5012146;28;20077;-67
2022/08/21 08:23:54;;;;;;;6.35;2.60;;;21.40;99.90;;;;;;5011204;28;20081;-68
2022/08/21 08:26:20;;;;;;;5.38;2.40;;;21.40;99.90;;;;;;5011311;28;20068;-67
2022/08/21 08:28:47;;;;;;;6.75;2.28;;;21.50;99.90;;;;;;4994730;28;20058;-68
2022/08/21 08:31:13;;;;;;;7.00;3.28;;;21.50;99.90;;;;;;4995414;28;20042;-68
2022/08/21 08:33:39;;;;;;;5.18;2.72;;;21.60;99.90;;;;;;4996299;28;20046;-68
2022/08/21 08:36:05;;;;;;;8.43;3.58;;;21.70;99.90;;;;;;5007404;28;20076;-67
2022/08/21 08:38:31;;;;;;;5.78;2.97;;;21.70;99.90;;;;;;5003099;28;20053;-68
2022/08/21 08:53:22;;;;;;;8.38;3.42;;;21.70;99.90;;;;;;5014737;28;20750;-68
2022/08/21 08:55:50;;;;;;;10.93;3.25;;;21.60;99.90;;;;;;5016383;28;20418;-66
2022/08/21 08:58:24;;;;;;;10.90;3.00;;;21.70;99.90;;;;;;5015583;28;20042;-66
2022/08/21 09:00:52;;;;;;;6.35;3.20;;;22.10;99.90;;;;;;4998548;28;20498;-66
2022/08/21 09:03:18;;;;;;;8.95;3.17;;;21.70;99.90;;;;;;5016285;28;20046;-67
2022/08/21 09:06:01;;;;;;;6.97;2.65;;;21.80;99.90;;;;;;4998534;28;20058;-67
2022/08/21 09:09:14;;;;;;;5.80;2.20;;;21.80;99.90;;;;;;5015876;28;20104;-67
2022/08/21 09:11:48;;;;;;;6.43;2.92;;;22.00;99.90;;;;;;4921228;29;20054;-68
2022/08/21 09:14:46;;;;;;;5.80;2.05;;;22.10;99.90;;;;;;4976593;28;20053;-68
2022/08/21 09:17:34;;;;;;;6.70;2.55;;;22.10;99.90;;;;;;5012393;28;20479;-67
2022/08/21 09:20:18;;;;;;;5.80;2.08;;;22.10;99.90;;;;;;4995291;28;20056;-67
2022/08/21 09:23:17;;;;;;;6.45;2.42;;;22.20;99.90;;;;;;4995958;28;20390;-68
2022/08/21 09:26:09;;;;;;;6.85;2.08;;;22.30;99.90;;;;;;5015562;28;20056;-68
2022/08/21 09:28:35;;;;;;;5.93;2.22;;;22.40;99.90;;;;;;4999749;28;20042;-68
2022/08/21 09:31:05;;;;;;;3.28;1.63;;;22.50;99.90;;;;;;5014888;28;20545;-67
2022/08/21 09:33:31;;;;;;;6.05;2.15;;;22.50;99.90;;;;;;5014607;28;20052;-68
2022/08/21 09:35:58;;;;;;;4.95;1.90;;;22.60;99.90;;;;;;5030800;28;20125;-67
2022/08/21 09:38:33;;;;;;;5.40;1.40;;;22.60;99.90;;;;;;5014842;28;20088;-68
2022/08/21 09:41:10;;;;;;;4.80;1.52;;;22.80;99.90;;;;;;4995784;28;20425;-68
2022/08/21 09:43:37;;;;;;;4.97;1.45;;;22.70;99.90;;;;;;5016263;28;20058;-68
2022/08/21 09:46:21;;;;;;;5.18;1.83;;;22.90;99.90;;;;;;5013318;28;20045;-68
2022/08/21 09:48:48;;;;;;;9.98;2.08;;;22.90;99.90;;;;;;5015462;28;20140;-67
2022/08/21 09:51:21;;;;;;;3.85;1.45;;;23.00;99.90;;;;;;5014882;28;20091;-68
2022/08/21 09:54:07;;;;;;;5.47;1.73;;;23.10;99.90;;;;;;4997419;28;20045;-68
2022/08/21 09:59:37;;;;;;;5.22;1.50;;;23.30;99.90;;;;;;4997198;28;20128;-68
2022/08/21 10:02:30;;;;;;;5.07;1.52;;;23.30;99.90;;;;;;5029064;28;20038;-68
2022/08/21 10:05:02;;;;;;;4.38;1.75;;;23.20;99.90;;;;;;5012849;28;20046;-68
2022/08/21 10:07:31;;;;;;;6.80;1.67;;;23.10;99.90;;;;;;4996346;28;20082;-68
2022/08/21 10:10:02;;;;;;;5.82;1.60;;;23.30;99.90;;;;;;5015075;28;20054;-67
2022/08/21 10:13:09;;;;;;;5.32;1.83;;;23.40;99.90;;;;;;5013640;28;20062;-68
2022/08/21 10:16:02;;;;;;;5.88;1.75;;;23.70;99.90;;;;;;5013061;28;20505;-69
2022/08/21 10:18:29;;;;;;;5.03;1.75;;;23.90;99.90;;;;;;4995746;28;20045;-69
2022/08/21 10:21:16;;;;;;;6.90;2.58;;;24.10;99.90;;;;;;5009887;28;20053;-68
2022/08/21 10:24:08;;;;;;;5.82;1.63;;;24.30;99.90;;;;;;5027280;28;20054;-68
2022/08/21 10:26:43;;;;;;;6.78;2.35;;;24.40;99.90;;;;;;5012832;28;20397;-68
2022/08/21 10:29:34;;;;;;;4.78;1.45;;;24.50;99.90;;;;;;5014525;28;20049;-69
2022/08/21 10:32:23;;;;;;;7.90;1.70;;;24.50;99.90;;;;;;5010115;28;20057;-68
2022/08/21 10:34:55;;;;;;;8.35;2.17;;;24.40;99.90;;;;;;5011573;28;20493;-68
2022/08/21 10:37:34;;;;;;;4.15;1.70;;;24.30;99.90;;;;;;5042940;28;20061;-68
2022/08/21 10:40:21;;;;;;;6.45;2.45;;;24.20;99.90;;;;;;5042075;28;20427;-68
2022/08/21 10:42:58;;;;;;;4.38;1.65;;;24.00;99.90;;;;;;5010256;28;20046;-68
2022/08/21 10:45:41;;;;;;;4.55;1.65;;;23.70;99.90;;;;;;5012911;28;20335;-68
2022/08/21 10:48:12;;;;;;;8.35;2.22;;;23.60;99.90;;;;;;5043739;28;20061;-68
2022/08/21 10:50:55;;;;;;;5.20;1.65;;;23.60;99.90;;;;;;5014901;28;20430;-68
2022/08/21 10:53:37;;;;;;;6.65;1.77;;;23.70;99.90;;;;;;5013813;28;20088;-68
2022/08/21 10:56:02;;;;;;;;;;;23.90;99.90;;;;;;5010527;28;20054;-69
2022/08/21 10:58:49;;;;;;;3.85;1.40;;;24.10;99.90;;;;;;5012952;28;19921;-68
2022/08/21 11:01:28;;;;;;;4.93;1.63;;;24.20;99.90;;;;;;5013808;28;20414;-68
2022/08/21 11:04:03;;;;;;;8.45;2.22;;;24.30;99.70;;;;;;5013750;28;20050;-68
2022/08/21 11:06:32;;;;;;;4.70;1.63;;;24.30;99.90;;;;;;5013297;28;20058;-68
2022/08/21 11:09:05;;;;;;;4.75;1.40;;;24.10;99.90;;;;;;5011452;28;20120;-68
2022/08/21 11:11:38;;;;;;;5.30;1.80;;;24.20;99.90;;;;;;5012303;28;20056;-69
2022/08/21 11:14:29;;;;;;;7.53;1.85;;;24.30;99.90;;;;;;5013975;28;20045;-70
2022/08/21 11:17:01;;;;;;;5.18;1.63;;;24.40;99.90;;;;;;5013455;28;20050;-68
2022/08/21 11:20:03;;;;;;;4.80;1.80;;;24.40;99.90;;;;;;5012625;28;20054;-68
2022/08/21 11:26:40;;;;;;;5.57;1.70;;;24.00;99.90;;;;;;5043936;28;20054;-67
2022/08/21 11:29:20;;;;;;;4.22;1.60;;;23.70;99.90;;;;;;5013002;28;20429;-68
2022/08/21 11:32:06;;;;;;;7.07;2.33;;;23.60;99.90;;;;;;5012627;28;20092;-67
2022/08/21 11:34:57;;;;;;;5.72;1.30;;;23.50;99.90;;;;;;5016892;28;20089;-69
2022/08/21 11:37:46;;;;;;;4.68;1.70;;;23.60;99.90;;;;;;5011287;28;20405;-67
2022/08/21 11:40:33;;;;;;;5.03;1.40;;;23.60;99.90;;;;;;5010562;28;20068;-68
2022/08/21 11:43:32;;;;;;;4.20;1.33;;;23.70;99.90;;;;;;5012636;28;20405;-67
2022/08/21 11:46:20;;;;;;;6.10;1.73;;;23.70;99.20;;;;;;5011831;28;20085;-68
2022/08/21 11:49:19;;;;;;;5.22;1.88;;;23.80;99.90;;;;;;5011307;28;20081;-68
2022/08/21 11:52:22;;;;;;;7.20;1.58;;;23.90;99.90;;;;;;5012507;28;20053;-69
2022/08/21 11:59:32;;;;;;;6.40;1.67;;;23.90;99.90;;;;;;5011317;28;20037;-68
2022/08/21 12:01:59;;;;;;;6.85;1.67;;;24.00;99.90;;;;;;5009860;28;20046;-68
2022/08/21 12:04:32;;;;;;;4.55;1.88;;;24.10;99.90;;;;;;5010971;28;20050;-68
2022/08/21 12:07:15;;;;;;;4.43;1.70;;;24.20;99.90;;;;;;5012088;28;20466;-67
2022/08/21 12:13:32;;;;;;;5.15;1.42;;;23.80;98.90;;;;;;5012568;28;20129;-68
2022/08/21 12:16:15;;;;;;;4.35;1.55;;;23.70;99.90;;;;;;4990135;28;20046;-68
2022/08/21 12:18:41;;;;;;;4.18;1.98;;;23.50;99.90;;;;;;4993378;28;20042;-68
2022/08/21 12:21:19;;;;;;;5.57;2.10;;;23.50;99.90;;;;;;5042128;28;20054;-68
2022/08/21 12:24:07;;;;;;;3.75;1.55;;;23.30;99.90;;;;;;5011623;28;20061;-67
2022/08/21 12:26:48;;;;;;;7.13;1.80;;;23.30;99.90;;;;;;5000737;28;20057;-67
2022/08/21 12:29:24;;;;;;;5.57;2.00;;;23.30;99.90;;;;;;5013361;28;20049;-67
2022/08/21 12:31:52;;;;;;;4.40;1.67;;;23.30;99.90;;;;;;5012799;28;20125;-67
2022/08/21 12:34:20;;;;;;;4.10;1.75;;;23.40;99.90;;;;;;5012749;28;20049;-68
2022/08/21 12:36:53;;;;;;;9.88;2.03;;;23.70;99.90;;;;;;5011831;28;20441;-68
2022/08/21 12:39:24;;;;;;;4.78;1.70;;;23.90;99.40;;;;;;5012576;28;20050;-68
2022/08/21 12:41:58;;;;;;;8.27;1.83;;;24.30;99.90;;;;;;5011625;28;20479;-67
2022/08/21 12:44:42;;;;;;;3.80;1.80;;;24.50;97.50;;;;;;5011387;28;20498;-68
2022/08/21 12:47:17;;;;;;;5.28;1.58;;;24.60;94.50;;;;;;5012138;28;20110;-68
2022/08/21 12:50:27;;;;;;;6.00;1.58;;;24.70;95.10;;;;;;5012762;28;20579;-67
2022/08/21 12:53:10;;;;;;;6.03;1.70;;;24.90;96.60;;;;;;4970495;28;20059;-67
2022/08/21 12:55:41;;;;;;;6.60;1.88;;;24.90;96.20;;;;;;5019885;28;20128;-68
2022/08/21 12:58:16;;;;;;;8.10;2.00;;;24.80;94.10;;;;;;5019580;28;20058;-67
2022/08/21 13:00:52;;;;;;;5.97;2.13;;;24.70;96.90;;;;;;5011922;28;20046;-68
2022/08/21 13:03:18;;;;;;;4.57;1.90;;;24.80;96.10;;;;;;5012214;28;20058;-68
2022/08/21 13:05:44;;;;;;;6.63;1.83;;;24.80;95.70;;;;;;5010709;28;20061;-68
2022/08/21 13:08:12;;;;;;;6.13;2.42;;;24.70;95.80;;;;;;5012005;28;20078;-68
2022/08/21 13:10:40;;;;;;;5.38;1.92;;;24.80;98.30;;;;;;5011828;28;20060;-69
2022/08/21 13:13:14;;;;;;;4.60;2.20;;;24.90;98.90;;;;;;5011096;28;20065;-68
2022/08/21 13:15:42;;;;;;;3.78;1.50;;;24.80;98.00;;;;;;4994873;28;20425;-68
2022/08/21 13:18:07;;;;;;;5.20;2.10;;;24.70;97.80;;;;;;5011167;28;20054;-67
2022/08/21 13:20:42;;;;;;;3.58;1.83;;;24.60;98.20;;;;;;5012617;28;20061;-68
2022/08/21 13:23:36;;;;;;;6.78;2.75;;;24.40;98.90;;;;;;5013805;28;20131;-68
2022/08/21 13:26:13;;;;;;;7.53;2.42;;;24.30;98.10;;;;;;5003966;28;20049;-68
2022/08/21 13:28:39;;;;;;;5.32;2.20;;;24.20;99.30;;;;;;5016266;28;20399;-69
2022/08/21 13:31:09;;;;;;;5.32;2.22;;;24.20;99.90;;;;;;5030381;28;20157;-68
2022/08/21 13:33:38;;;;;;;5.15;1.90;;;24.10;99.70;;;;;;5006209;28;20141;-68
2022/08/21 13:36:10;;;;;;;5.28;2.10;;;23.90;99.70;;;;;;5012160;28;20479;-69
2022/08/21 13:38:43;;;;;;;3.63;1.85;;;23.90;99.90;;;;;;5013331;28;20384;-69
2022/08/21 13:41:33;;;;;;;6.72;2.25;;;23.90;99.90;;;;;;5015528;28;20053;-69
2022/08/21 13:44:03;;;;;;;5.30;2.17;;;23.30;99.90;;;;;;5010715;28;20104;-68
2022/08/21 13:46:33;;;;;;;5.18;1.92;;;23.60;99.90;;;;;;5014261;28;20077;-67
2022/08/21 13:49:00;;;;;;;7.40;2.10;;;23.60;99.90;;;;;;4999297;28;20135;-69